createdAt,value
2023-02-27T00:01:27.491Z,100785.44
2023-02-27T00:06:29.226Z,100705.75
2023-02-27T00:11:30.808Z,100723.41
2023-02-27T00:16:32.416Z,100728.19
2023-02-27T00:21:36.766Z,100752.53
2023-02-27T00:26:38.510Z,100736.41
2023-02-27T00:31:40.099Z,100738.66
2023-02-27T00:36:41.762Z,100736.94
2023-02-27T00:41:43.268Z,100751.78
2023-02-27T00:46:44.878Z,100751.38
2023-02-27T00:51:46.809Z,100734.41
2023-02-27T00:56:48.426Z,100731.25
2023-02-27T01:01:49.980Z,100728.28
2023-02-27T01:06:51.543Z,100743.81
2023-02-27T01:11:57.611Z,100737.03
2023-02-27T01:16:59.192Z,100753.56
2023-02-27T01:22:00.785Z,100746.22
2023-02-27T01:27:02.456Z,100738.69
2023-02-27T01:32:04.400Z,100741.38
2023-02-27T01:37:06.142Z,100742.84
2023-02-27T01:42:19.434Z,100756.63
2023-02-27T01:47:22.578Z,100765.81
2023-02-27T01:52:24.253Z,100751.41
2023-02-27T01:57:26.994Z,100774.72
2023-02-27T02:02:36.345Z,100769.22
2023-02-27T02:07:38.590Z,100775.72
2023-02-27T02:12:40.665Z,100753.97
2023-02-27T02:17:54.724Z,100754.38
2023-02-27T02:23:36.308Z,100749.75
2023-02-27T02:29:03.225Z,100776.88
2023-02-27T02:34:41.071Z,100775.09
2023-02-27T02:40:18.828Z,100765.47
2023-02-27T02:45:33.378Z,100756.25
2023-02-27T02:50:49.191Z,100775.16
2023-02-27T02:55:59.925Z,100778.25
2023-02-27T03:01:10.139Z,100763.84
2023-02-27T03:06:19.768Z,100793.63
2023-02-27T03:11:26.445Z,100780.03
2023-02-27T03:16:35.888Z,100796.44
2023-02-27T03:21:43.152Z,100786.44
2023-02-27T03:26:47.324Z,100785.59
2023-02-27T03:32:02.058Z,100784.69
2023-02-27T03:37:30.056Z,100785.91
2023-02-27T03:42:46.134Z,100781.22
2023-02-27T03:47:53.720Z,100813.53
2023-02-27T03:52:57.251Z,100829.56
2023-02-27T03:57:59.752Z,100823.66
2023-02-27T04:03:02.380Z,100808.94
2023-02-27T04:08:26.261Z,100812.28
2023-02-27T04:13:40.773Z,100817.81
2023-02-27T04:18:48.300Z,100835.84
2023-02-27T04:23:57.798Z,100836.56
2023-02-27T04:29:05.456Z,100819.06
2023-02-27T04:34:21.552Z,100829.94
2023-02-27T04:39:37.076Z,100830.19
2023-02-27T04:44:40.425Z,100836.97
2023-02-27T04:49:47.336Z,100846.97
2023-02-27T04:55:19.650Z,100845.13
2023-02-27T05:00:24.851Z,100866.47
2023-02-27T05:05:30.047Z,100851.81
2023-02-27T05:10:52.106Z,100831.84
2023-02-27T05:16:02.122Z,100858.22
2023-02-27T05:21:26.062Z,100855.84
2023-02-27T05:26:46.000Z,100847.44
2023-02-27T05:32:11.822Z,100855.25
2023-02-27T05:37:20.286Z,100840.69
2023-02-27T05:42:29.609Z,100841.66
2023-02-27T05:47:35.352Z,100839.88
2023-02-27T05:52:38.327Z,100840.53
2023-02-27T05:57:44.701Z,100847.34
2023-02-27T06:02:46.383Z,100854.31
2023-02-27T06:07:48.570Z,100873.06
2023-02-27T06:12:50.185Z,100876.31
2023-02-27T06:17:51.701Z,100884.94
2023-02-27T06:22:53.598Z,100875.56
2023-02-27T06:27:55.220Z,100880.31
2023-02-27T06:32:56.800Z,100876.41
2023-02-27T06:37:58.625Z,100883.94
2023-02-27T06:43:00.219Z,100884.28
2023-02-27T06:48:01.888Z,100874.94
2023-02-27T06:53:04.296Z,100881.41
2023-02-27T06:58:05.852Z,100889.66
2023-02-27T07:03:07.604Z,100902.63
2023-02-27T07:08:10.279Z,100905.47
2023-02-27T07:13:17.302Z,100886.69
2023-02-27T07:18:20.483Z,100895.88
2023-02-27T07:23:22.971Z,100858.22
2023-02-27T07:28:24.509Z,100846.53
2023-02-27T07:33:26.254Z,100839.13
2023-02-27T07:38:28.917Z,100838.75
2023-02-27T07:43:30.885Z,100825.59
2023-02-27T07:48:33.274Z,100820.41
2023-02-27T07:53:35.027Z,100821.28
2023-02-27T07:58:36.565Z,100805.56
2023-02-27T08:03:38.091Z,100802.06
2023-02-27T08:08:39.738Z,100797.53
2023-02-27T08:13:59.579Z,100785.13
2023-02-27T08:19:02.212Z,100760.91
2023-02-27T08:24:03.800Z,100778.72
2023-02-27T08:29:05.539Z,100756.63
2023-02-27T08:34:10.622Z,100725.88
2023-02-27T08:39:13.487Z,100748.94
2023-02-27T08:44:15.050Z,100727.91
2023-02-27T08:49:16.832Z,100719.06
2023-02-27T08:54:18.962Z,100702.03
2023-02-27T08:59:20.664Z,100686.38
2023-02-27T09:04:22.216Z,100651.03
2023-02-27T09:09:24.065Z,100660.56
2023-02-27T09:14:25.749Z,100679.28
2023-02-27T09:19:27.496Z,100637.81
2023-02-27T09:24:29.197Z,100655.44
2023-02-27T09:29:30.990Z,100633.78
2023-02-27T09:34:32.562Z,100579.38
2023-02-27T09:39:34.193Z,100641.97
2023-02-27T09:44:46.800Z,100589.47
2023-02-27T09:49:59.166Z,100566.25
2023-02-27T09:55:01.144Z,100590.59
2023-02-27T10:00:19.989Z,100544.94
2023-02-27T10:05:52.019Z,100578.03
2023-02-27T10:11:03.517Z,100488.16
2023-02-27T10:16:06.332Z,100502.66
2023-02-27T10:21:19.334Z,100560.41
2023-02-27T10:26:24.716Z,100505.59
2023-02-27T10:31:31.739Z,100528.56
2023-02-27T10:36:34.936Z,100552.69
2023-02-27T10:41:38.141Z,100531.09
2023-02-27T10:46:40.310Z,100485.53
2023-02-27T10:51:44.228Z,100529.59
2023-02-27T10:56:49.453Z,100543.59
2023-02-27T11:01:56.017Z,100519.28
2023-02-27T11:06:59.031Z,100476.56
2023-02-27T11:12:34.828Z,100552.88
2023-02-27T11:17:37.302Z,100535.47
2023-02-27T11:22:41.648Z,100524.66
2023-02-27T11:27:43.253Z,100456.03
2023-02-27T11:32:48.913Z,100515.22
2023-02-27T11:37:52.592Z,100511.81
2023-02-27T11:43:03.039Z,100489.16
2023-02-27T11:48:28.765Z,100482.41
2023-02-27T11:54:05.254Z,100600.50
2023-02-27T11:59:25.746Z,100549.13
2023-02-27T12:04:40.024Z,100558.78
2023-02-27T12:09:54.567Z,100577.50
2023-02-27T12:15:18.002Z,100567.91
2023-02-27T12:20:22.709Z,100587.69
2023-02-27T12:25:38.756Z,100583.13
2023-02-27T12:30:48.058Z,100600.66
2023-02-27T12:35:59.224Z,100548.94
2023-02-27T12:41:36.601Z,100523.91
2023-02-27T12:46:38.528Z,100546.69
2023-02-27T12:51:55.001Z,100555.34
2023-02-27T12:57:01.822Z,100497.56
2023-02-27T13:02:18.565Z,100544.91
2023-02-27T13:07:31.315Z,100542.81
2023-02-27T13:12:50.936Z,100533.16
2023-02-27T13:18:07.124Z,100501.75
2023-02-27T13:23:31.247Z,100506.13
2023-02-27T13:28:34.051Z,100518.13
2023-02-27T13:33:43.239Z,100560.47
2023-02-27T13:38:46.853Z,100522.13
2023-02-27T13:43:53.342Z,100534.31
2023-02-27T13:49:28.313Z,100537.09
2023-02-27T13:54:41.012Z,100550.94
2023-02-27T13:59:52.095Z,100520.81
2023-02-27T14:04:58.188Z,100538.72
2023-02-27T14:10:11.670Z,100552.31
2023-02-27T14:15:22.389Z,100621.13
2023-02-27T14:20:30.871Z,100600.28
2023-02-27T14:25:40.492Z,100585.28
2023-02-27T14:30:53.200Z,100538.84
2023-02-27T14:36:04.915Z,100582.75
2023-02-27T14:41:17.282Z,100569.69
2023-02-27T14:46:39.214Z,100622.88
2023-02-27T14:51:40.851Z,100634.00
2023-02-27T14:56:59.087Z,100617.97
2023-02-27T15:02:04.273Z,100589.94
2023-02-27T15:07:06.027Z,100629.06
2023-02-27T15:12:09.301Z,100622.47
2023-02-27T15:17:18.572Z,100624.34
2023-02-27T15:22:37.941Z,100627.56
2023-02-27T15:27:42.443Z,100608.97
2023-02-27T15:32:44.426Z,100619.78
2023-02-27T15:37:53.230Z,100635.19
2023-02-27T15:42:57.868Z,100651.41
2023-02-27T15:47:59.902Z,100672.38
2023-02-27T15:53:12.217Z,100674.72
2023-02-27T15:58:24.736Z,100679.13
2023-02-27T16:03:30.945Z,100700.41
2023-02-27T16:08:32.654Z,100710.72
2023-02-27T16:13:38.916Z,100718.47
2023-02-27T16:18:49.512Z,100690.56
2023-02-27T16:23:52.207Z,100721.63
2023-02-27T16:29:03.902Z,100721.25
2023-02-27T16:34:46.550Z,100721.59
2023-02-27T16:39:52.316Z,100742.16
2023-02-27T16:44:53.882Z,100747.41
2023-02-27T16:49:55.438Z,100727.31
2023-02-27T16:54:57.080Z,100778.81
2023-02-27T16:59:58.826Z,100777.63
2023-02-27T17:05:00.666Z,100776.47
2023-02-27T17:10:03.802Z,100784.75
2023-02-27T17:15:06.059Z,100773.41
2023-02-27T17:20:08.903Z,100766.09
2023-02-27T17:25:11.567Z,100765.06
2023-02-27T17:30:14.376Z,100803.00
2023-02-27T17:35:15.926Z,100802.56
2023-02-27T17:40:17.634Z,100774.56
2023-02-27T17:45:21.119Z,100802.78
2023-02-27T17:50:22.734Z,100785.25
2023-02-27T17:55:24.288Z,100827.41
2023-02-27T18:00:26.024Z,100830.13
2023-02-27T18:05:27.691Z,100822.47
2023-02-27T18:10:29.279Z,100839.94
2023-02-27T18:15:31.317Z,100836.06
2023-02-27T18:20:32.937Z,100841.47
2023-02-27T18:25:35.180Z,100850.44
2023-02-27T18:30:39.004Z,100860.91
2023-02-27T18:35:40.613Z,100856.38
2023-02-27T18:40:42.816Z,100868.31
2023-02-27T18:45:44.631Z,100873.16
2023-02-27T18:50:46.278Z,100886.84
2023-02-27T18:55:47.959Z,100894.69
2023-02-27T19:00:49.522Z,100897.72
2023-02-27T19:05:51.523Z,100886.25
2023-02-27T19:10:53.096Z,100906.88
2023-02-27T19:15:54.792Z,100923.16
2023-02-27T19:20:57.492Z,100907.38
2023-02-27T19:26:02.644Z,100914.84
2023-02-27T19:31:12.422Z,100930.94
2023-02-27T19:36:17.778Z,100924.50
2023-02-27T19:41:20.812Z,100938.25
2023-02-27T19:46:29.329Z,100962.28
2023-02-27T19:51:31.770Z,100964.13
2023-02-27T19:56:33.428Z,100965.56
2023-02-27T20:01:38.851Z,100990.69
2023-02-27T20:06:44.001Z,101008.72
2023-02-27T20:11:48.344Z,101011.69
2023-02-27T20:16:49.900Z,101024.59
2023-02-27T20:21:55.396Z,101033.41
2023-02-27T20:26:59.153Z,101037.13
2023-02-27T20:32:01.058Z,101043.94
2023-02-27T20:37:03.216Z,101057.81
2023-02-27T20:42:05.866Z,101053.16
2023-02-27T20:47:09.055Z,101050.16
2023-02-27T20:52:10.847Z,101029.47
2023-02-27T20:57:12.656Z,100998.31
2023-02-27T21:02:14.257Z,100950.56
2023-02-27T21:07:18.505Z,100919.38
2023-02-27T21:12:20.144Z,100897.16
2023-02-27T21:17:23.276Z,100889.94
2023-02-27T21:22:24.840Z,100874.63
2023-02-27T21:27:26.481Z,100876.75
2023-02-27T21:32:28.072Z,100873.94
2023-02-27T21:37:29.741Z,100909.50
2023-02-27T21:42:31.590Z,100927.75
2023-02-27T21:47:33.175Z,100929.19
2023-02-27T21:52:34.841Z,100957.16
2023-02-27T21:57:38.304Z,101003.50
2023-02-27T22:02:40.185Z,101023.72
2023-02-27T22:07:41.734Z,101045.88
2023-02-27T22:12:43.352Z,101055.91
2023-02-27T22:17:44.929Z,101063.38
2023-02-27T22:22:47.338Z,101068.28
2023-02-27T22:27:48.939Z,101068.50
2023-02-27T22:32:50.487Z,101053.44
2023-02-27T22:37:52.115Z,101077.00
2023-02-27T22:42:53.734Z,101087.69
2023-02-27T22:47:55.321Z,101083.44
2023-02-27T22:52:56.904Z,101082.44
2023-02-27T22:57:58.460Z,101094.69
2023-02-27T23:03:00.002Z,101098.63
2023-02-27T23:08:01.519Z,101095.44
2023-02-27T23:13:03.051Z,101113.53
2023-02-27T23:18:05.535Z,101095.69
2023-02-27T23:23:08.521Z,101109.59
2023-02-27T23:28:10.357Z,101080.72
2023-02-27T23:33:11.953Z,101079.25
2023-02-27T23:38:13.564Z,101094.44
2023-02-27T23:43:34.156Z,101071.75
2023-02-27T23:48:35.806Z,101061.53
2023-02-27T23:53:39.229Z,101080.09
2023-02-27T23:58:40.916Z,101081.22
